Time;durP1;ratioP1;P1;durP2;ratioP2;P2;SDS_P1;SDS_P2;PMS_P1;PMS_P2;Temp;Humidity;BMP_temperature;BMP_pressure;BME280_temperature;BME280_humidity;BME280_pressure;Samples;Min_cycle;Max_cycle;Signal;HPM_P1;HPM_P2
2022/10/23 00:01:43;;;;;;;11.30;5.10;;;;;;;15.64;82.63;99436.31;5103949;28;20101;-63
2022/10/23 00:04:13;;;;;;;7.55;5.63;;;;;;;15.64;82.24;99456.84;5101109;28;20494;-65
2022/10/23 00:06:41;;;;;;;4.40;4.00;;;;;;;15.63;82.19;99373.59;5111276;28;20462;-65
2022/10/23 00:09:11;;;;;;;8.55;4.75;;;;;;;15.76;81.96;99425.19;5102327;28;20048;-64
2022/10/23 00:11:40;;;;;;;13.93;6.15;;;;;;;15.69;82.23;99407.16;5108975;28;20054;-65
2022/10/23 00:14:07;;;;;;;9.27;6.35;;;;;;;15.71;81.74;99425.38;5106475;28;20074;-65
2022/10/23 00:16:34;;;;;;;9.23;5.85;;;;;;;15.73;82.28;99408.97;5107472;28;20075;-65
2022/10/23 00:19:02;;;;;;;9.82;5.82;;;;;;;15.75;82.00;99431.94;5109872;28;20051;-64
2022/10/23 00:21:31;;;;;;;11.80;5.65;;;;;;;15.67;81.84;99430.03;5107925;27;20044;-65
2022/10/23 00:23:58;;;;;;;6.25;4.80;;;;;;;15.65;81.97;99351.53;5111908;28;20055;-66
2022/10/23 00:26:25;;;;;;;13.77;5.72;;;;;;;15.73;81.85;99405.34;5104196;28;20386;-65
2022/10/23 00:28:54;;;;;;;7.13;4.38;;;;;;;15.72;82.14;99379.16;5107963;28;20058;-64
2022/10/23 00:31:22;;;;;;;11.18;5.25;;;;;;;15.71;82.28;99424.53;5103880;28;20044;-64
2022/10/23 00:33:50;;;;;;;9.00;5.00;;;;;;;15.72;82.35;99410.13;5105866;28;20051;-65
2022/10/23 00:36:19;;;;;;;7.55;4.78;;;;;;;15.70;81.91;99403.22;5107759;28;20044;-64
2022/10/23 00:38:47;;;;;;;11.43;4.85;;;;;;;15.81;81.95;99422.13;5107632;28;20047;-65
2022/10/23 00:41:18;;;;;;;10.45;4.63;;;;;;;15.71;81.51;99385.13;5105309;28;20044;-65
2022/10/23 00:44:21;;;;;;;10.25;5.75;;;;;;;15.65;81.52;99387.28;5106365;28;20050;-64
2022/10/23 00:46:48;;;;;;;6.75;4.38;;;;;;;15.72;81.49;99403.66;5106229;28;20044;-65
2022/10/23 00:49:15;;;;;;;7.07;4.97;;;;;;;15.72;81.38;99398.03;5109727;28;20047;-65
2022/10/23 00:51:49;;;;;;;9.32;5.03;;;;;;;15.77;81.21;99398.66;5107806;28;20046;-65
2022/10/23 00:54:19;;;;;;;8.35;5.80;;;;;;;15.81;81.39;99396.00;5108627;28;22055;-66
2022/10/23 00:56:54;;;;;;;11.00;4.85;;;;;;;15.81;81.38;99408.06;5105677;28;20057;-66
2022/10/23 00:59:22;;;;;;;7.70;4.72;;;;;;;15.85;81.56;99396.94;5095431;28;20090;-66
2022/10/23 01:01:49;;;;;;;9.15;4.70;;;;;;;15.87;80.37;99392.63;5101763;27;20047;-66
2022/10/23 01:04:16;;;;;;;8.27;5.70;;;;;;;15.93;80.08;99398.03;5111675;28;20491;-66
2022/10/23 01:06:49;;;;;;;11.02;5.28;;;;;;;15.97;80.25;99382.94;5104235;28;20059;-67
2022/10/23 01:09:19;;;;;;;9.77;5.28;;;;;;;16.01;80.11;99399.97;5108718;28;20079;-66
2022/10/23 01:11:54;;;;;;;5.05;4.55;;;;;;;15.98;79.76;99384.56;5096013;28;20052;-67
2022/10/23 01:14:30;;;;;;;11.80;4.90;;;;;;;16.04;80.32;99382.38;5106136;28;20047;-66
2022/10/23 01:17:10;;;;;;;6.75;4.90;;;;;;;15.98;79.10;99386.56;5103458;28;20047;-66
2022/10/23 01:20:03;;;;;;;;;;;;;;;15.84;79.82;99375.59;5103166;28;20137;-66
2022/10/23 01:22:48;;;;;;;11.95;5.50;;;;;;;15.98;79.88;99395.00;5108175;28;19924;-66
2022/10/23 01:25:17;;;;;;;6.20;5.35;;;;;;;15.98;79.36;99395.00;5098209;28;20089;-66
2022/10/23 01:27:48;;;;;;;9.60;4.90;;;;;;;15.87;78.90;99367.28;5109381;28;20050;-66
2022/10/23 01:30:16;;;;;;;6.68;4.60;;;;;;;15.97;79.90;99382.13;5114116;27;20078;-66
2022/10/23 01:32:47;;;;;;;6.47;5.30;;;;;;;15.96;80.06;99364.38;5113681;27;20043;-66
2022/10/23 01:35:20;;;;;;;7.22;4.50;;;;;;;16.03;80.34;99369.44;5109784;27;20055;-66
2022/10/23 01:37:59;;;;;;;8.20;5.80;;;;;;;15.93;79.41;99378.31;5110204;27;20055;-67
2022/10/23 01:40:52;;;;;;;12.60;7.53;;;;;;;16.03;79.90;99381.56;5109988;28;20055;-66
2022/10/23 01:43:26;;;;;;;8.13;4.47;;;;;;;16.00;79.85;99375.75;5109174;28;20074;-65
2022/10/23 01:45:58;;;;;;;9.70;4.97;;;;;;;16.00;79.95;99356.06;5108674;27;20043;-66
2022/10/23 01:48:30;;;;;;;6.72;4.88;;;;;;;16.02;78.86;99357.38;5107700;28;20051;-66
2022/10/23 01:51:04;;;;;;;15.15;5.60;;;;;;;16.01;78.89;99349.28;5102844;28;20051;-66
2022/10/23 01:53:34;;;;;;;6.55;4.95;;;;;;;16.10;79.20;99350.00;5101704;28;20059;-65
2022/10/23 01:56:06;;;;;;;7.65;5.05;;;;;;;16.18;79.76;99359.53;5109468;28;20055;-64
2022/10/23 01:58:34;;;;;;;10.02;4.65;;;;;;;16.16;79.37;99373.97;5111688;27;20445;-65
2022/10/23 02:01:04;;;;;;;12.60;6.35;;;;;;;15.96;79.50;99349.47;5113469;27;20040;-64
2022/10/23 02:03:32;;;;;;;;;;;;;;;15.16;82.00;99364.47;5109054;27;20675;-64
2022/10/23 02:05:59;;;;;;;8.02;7.45;;;;;;;15.03;83.14;99335.44;5109241;28;20393;-64
2022/10/23 02:08:26;;;;;;;11.27;7.45;;;;;;;15.05;83.09;99332.31;5113123;28;20054;-65
2022/10/23 02:11:11;;;;;;;8.20;5.90;;;;;;;15.22;83.22;99363.13;5106235;28;20391;-65
2022/10/23 02:13:48;;;;;;;11.23;6.30;;;;;;;15.34;82.97;99335.06;5106267;28;20055;-66
2022/10/23 02:16:20;;;;;;;12.68;5.72;;;;;;;15.41;82.54;99332.53;5110397;28;20048;-66
2022/10/23 02:19:01;;;;;;;9.77;5.85;;;;;;;15.48;81.72;99325.53;5110075;28;20059;-64
2022/10/23 02:21:49;;;;;;;6.28;5.00;;;;;;;15.61;81.40;99370.28;5114352;28;20379;-65
2022/10/23 02:24:23;;;;;;;15.20;6.38;;;;;;;15.73;81.69;99310.47;5107665;28;20047;-64
2022/10/23 02:26:55;;;;;;;7.85;5.90;;;;;;;15.73;81.12;99326.53;5113564;28;20075;-65
2022/10/23 02:29:31;;;;;;;5.55;4.97;;;;;;;15.54;81.24;99329.78;5109256;27;20052;-65
2022/10/23 02:31:58;;;;;;;8.20;5.40;;;;;;;15.44;81.59;99336.66;5107908;28;20048;-65
2022/10/23 02:34:25;;;;;;;6.30;5.65;;;;;;;15.48;81.56;99309.47;5110577;27;20058;-65
2022/10/23 02:36:52;;;;;;;10.02;5.57;;;;;;;15.50;81.46;99318.41;5107087;27;20052;-65
2022/10/23 02:39:24;;;;;;;16.27;7.45;;;;;;;15.54;80.88;99296.03;5105344;28;20047;-65
2022/10/23 02:41:59;;;;;;;8.60;5.10;;;;;;;15.65;80.69;99314.13;5108766;28;20043;-66
2022/10/23 02:44:46;;;;;;;8.23;5.80;;;;;;;15.75;79.60;99274.31;5108935;28;20050;-66
2022/10/23 02:47:41;;;;;;;8.82;4.95;;;;;;;15.87;79.10;99246.22;5109557;28;20059;-65
2022/10/23 02:50:32;;;;;;;8.23;5.03;;;;;;;15.96;78.45;99267.81;5103294;28;20452;-65
2022/10/23 02:53:19;;;;;;;7.88;4.80;;;;;;;16.05;78.57;99282.63;5107000;28;20051;-65
2022/10/23 02:56:07;;;;;;;13.75;6.60;;;;;;;15.95;78.00;99269.81;5108025;28;20058;-65
2022/10/23 02:58:47;;;;;;;12.43;5.07;;;;;;;16.04;78.56;99309.97;5108416;28;20060;-66
2022/10/23 03:01:18;;;;;;;10.70;5.72;;;;;;;16.09;78.70;99273.13;5111904;27;20047;-66
2022/10/23 03:03:52;;;;;;;11.10;5.05;;;;;;;15.95;78.56;99280.25;5107699;28;20047;-66
2022/10/23 03:06:21;;;;;;;8.13;5.50;;;;;;;15.73;79.01;99304.81;5109602;28;20051;-66
2022/10/23 03:08:58;;;;;;;7.55;6.85;;;;;;;15.41;80.22;99270.63;5105717;28;20435;-66
2022/10/23 03:11:25;;;;;;;10.88;8.35;;;;;;;15.10;81.60;99271.06;5105575;28;20044;-66
2022/10/23 03:13:52;;;;;;;12.13;7.60;;;;;;;15.05;82.01;99295.75;5111494;28;20047;-66
2022/10/23 03:16:19;;;;;;;11.52;6.70;;;;;;;14.99;82.57;99303.56;5108159;28;20403;-66
2022/10/23 03:18:46;;;;;;;15.55;6.45;;;;;;;15.10;82.61;99287.91;5105643;28;20052;-66
2022/10/23 03:21:12;;;;;;;13.05;7.35;;;;;;;15.02;82.75;99305.69;5107301;28;20527;-66
2022/10/23 03:23:39;;;;;;;11.85;6.97;;;;;;;14.95;83.40;99280.09;5110473;27;20040;-67
2022/10/23 03:26:06;;;;;;;11.48;10.32;;;;;;;14.87;83.76;99300.63;5100540;28;20056;-65
2022/10/23 03:28:34;;;;;;;12.05;10.77;;;;;;;14.78;84.22;99314.75;5102985;27;20056;-64
2022/10/23 03:31:01;;;;;;;15.73;9.05;;;;;;;14.77;84.67;99301.88;5112988;28;20430;-65
2022/10/23 03:33:29;;;;;;;12.95;11.82;;;;;;;14.68;84.97;99282.25;5108028;28;20048;-65
2022/10/23 03:35:56;;;;;;;13.75;11.98;;;;;;;14.58;85.25;99276.19;5109955;28;20047;-66
2022/10/23 03:38:23;;;;;;;17.63;11.38;;;;;;;14.58;85.21;99267.75;5102005;28;20044;-66
2022/10/23 03:40:50;;;;;;;15.55;13.27;;;;;;;14.45;86.09;99205.81;5104685;28;20047;-66
2022/10/23 03:43:17;;;;;;;13.77;12.60;;;;;;;14.38;86.14;99213.13;5109106;28;20044;-66
2022/10/23 03:45:43;;;;;;;17.27;12.73;;;;;;;14.43;86.75;99258.72;5109032;28;20055;-65
2022/10/23 03:48:10;;;;;;;12.60;11.65;;;;;;;14.53;86.57;99256.69;5106247;28;20055;-64
2022/10/23 03:50:37;;;;;;;15.75;12.00;;;;;;;14.46;86.42;99231.91;5108595;28;20051;-65
2022/10/23 03:53:04;;;;;;;14.07;12.80;;;;;;;14.29;87.36;99260.94;5105366;28;20055;-65
2022/10/23 03:55:31;;;;;;;14.25;13.32;;;;;;;14.08;88.11;99245.97;5103165;28;20060;-64
2022/10/23 03:57:57;;;;;;;17.02;15.43;;;;;;;14.08;88.18;99296.50;5103328;28;20059;-66
2022/10/23 04:00:24;;;;;;;21.67;20.15;;;;;;;13.93;89.18;99290.25;5103366;28;20060;-65
2022/10/23 04:02:51;;;;;;;19.35;18.25;;;;;;;13.94;89.81;99319.16;5108557;27;20051;-66
2022/10/23 04:05:18;;;;;;;17.92;17.08;;;;;;;13.90;89.76;99329.41;5102382;28;20055;-64
2022/10/23 04:07:44;;;;;;;18.38;17.58;;;;;;;14.19;89.96;99394.09;5110996;28;20418;-64
2022/10/23 04:10:11;;;;;;;18.45;17.65;;;;;;;14.41;90.01;99383.78;5107713;28;20059;-64
2022/10/23 04:12:38;;;;;;;18.30;17.50;;;;;;;14.40;89.76;99349.28;5107675;28;20161;-65
2022/10/23 04:15:05;;;;;;;19.10;18.20;;;;;;;14.31;89.95;99356.88;5105919;28;20126;-65
2022/10/23 04:17:32;;;;;;;33.03;22.60;;;;;;;14.36;89.93;99376.38;5105448;28;20066;-65
2022/10/23 04:19:59;;;;;;;23.85;21.55;;;;;;;14.30;90.32;99366.47;5104739;28;22145;-64
2022/10/23 04:22:26;;;;;;;22.17;20.02;;;;;;;14.34;90.08;99364.66;5104746;28;20046;-64
2022/10/23 04:24:54;;;;;;;23.60;20.67;;;;;;;14.42;89.89;99371.38;5097664;28;20502;-64
2022/10/23 04:27:21;;;;;;;29.95;22.02;;;;;;;14.50;90.25;99393.06;5104382;28;22765;-64
2022/10/23 04:29:48;;;;;;;43.38;25.20;;;;;;;14.47;90.33;99413.34;5104317;28;20043;-64
2022/10/23 04:32:17;;;;;;;38.35;23.90;;;;;;;14.43;90.90;99404.78;5107709;28;20069;-63
2022/10/23 04:34:43;;;;;;;32.88;29.75;;;;;;;14.59;91.15;99407.06;5104633;28;20048;-64
2022/10/23 04:37:10;;;;;;;35.83;25.73;;;;;;;14.67;91.55;99414.66;5103108;28;20071;-64
2022/10/23 04:39:37;;;;;;;47.97;23.42;;;;;;;14.86;91.63;99403.00;5105588;28;20063;-64
2022/10/23 04:42:04;;;;;;;36.72;23.65;;;;;;;14.99;91.52;99409.56;5103451;28;20055;-63
2022/10/23 04:44:30;;;;;;;24.38;21.75;;;;;;;14.98;91.57;99402.31;5107179;28;20048;-64
2022/10/23 04:46:57;;;;;;;36.92;22.05;;;;;;;14.95;91.84;99395.34;5100301;28;20070;-64
2022/10/23 04:49:24;;;;;;;33.25;21.85;;;;;;;15.05;92.23;99394.16;5107708;28;20059;-64
2022/10/23 04:51:51;;;;;;;38.65;27.92;;;;;;;15.11;92.24;99434.97;5089853;28;20043;-65
2022/10/23 04:54:17;;;;;;;37.10;22.50;;;;;;;15.17;92.51;99422.34;5109611;28;20071;-65
2022/10/23 04:56:44;;;;;;;36.88;22.88;;;;;;;15.03;92.13;99405.72;5106390;28;20521;-65
2022/10/23 04:59:11;;;;;;;29.02;21.80;;;;;;;14.81;91.64;99415.25;5102870;28;20506;-64
2022/10/23 05:01:38;;;;;;;24.85;22.30;;;;;;;14.56;91.84;99425.41;5106611;28;20051;-64
2022/10/23 05:04:05;;;;;;;31.63;21.95;;;;;;;14.67;92.40;99414.66;5101148;28;20056;-65
2022/10/23 05:06:31;;;;;;;24.27;19.02;;;;;;;14.65;92.63;99380.44;5101000;28;20066;-65
2022/10/23 05:08:58;;;;;;;19.83;18.08;;;;;;;14.67;92.69;99437.13;5105534;28;20534;-67
2022/10/23 05:11:25;;;;;;;20.63;19.35;;;;;;;14.84;93.03;99455.94;5105326;28;20043;-65
2022/10/23 05:13:52;;;;;;;19.13;17.92;;;;;;;14.87;93.19;99458.03;5104211;28;20048;-64
2022/10/23 05:16:35;;;;;;;24.08;18.58;;;;;;;14.95;92.91;99492.94;5111819;28;20063;-64
2022/10/23 05:19:05;;;;;;;32.78;21.83;;;;;;;15.07;93.28;99484.59;5108194;28;20059;-62
2022/10/23 05:21:34;;;;;;;;;;;;;;;14.93;93.67;99468.78;5110217;28;20050;-65
2022/10/23 05:24:00;;;;;;;29.88;19.75;;;;;;;15.12;93.74;99488.06;5111764;28;19926;-65
2022/10/23 05:26:30;;;;;;;35.45;20.48;;;;;;;15.37;93.76;99488.28;5101706;28;20074;-64
2022/10/23 05:28:57;;;;;;;26.80;22.03;;;;;;;15.49;92.99;99496.84;5105291;28;20048;-64
2022/10/23 05:31:24;;;;;;;31.35;19.80;;;;;;;15.65;92.76;99494.25;5102385;28;20395;-63
2022/10/23 05:33:54;;;;;;;20.35;13.45;;;;;;;15.73;92.48;99558.16;5091576;28;20050;-64
2022/10/23 05:36:22;;;;;;;34.00;15.68;;;;;;;15.82;91.76;99505.41;5099435;28;20060;-64
2022/10/23 05:38:50;;;;;;;29.67;12.43;;;;;;;15.85;91.97;99504.75;5108411;28;20052;-63
2022/10/23 05:41:16;;;;;;;25.42;12.07;;;;;;;15.97;91.59;99522.91;5105588;28;20060;-64
2022/10/23 05:43:45;;;;;;;32.55;12.10;;;;;;;16.03;91.25;99518.69;5105761;28;20043;-63
2022/10/23 05:46:12;;;;;;;35.25;12.00;;;;;;;16.13;91.29;99523.91;5108799;28;20051;-63
2022/10/23 05:48:38;;;;;;;33.15;13.98;;;;;;;16.13;90.64;99540.81;5107736;28;20544;-63
2022/10/23 05:51:08;;;;;;;39.88;10.38;;;;;;;16.11;90.33;99544.00;5101873;28;20135;-63
2022/10/23 05:53:34;;;;;;;23.87;11.60;;;;;;;16.11;90.63;99540.34;5107438;28;20493;-63
2022/10/23 05:56:08;;;;;;;33.75;11.10;;;;;;;16.15;90.62;99538.50;5098948;28;20074;-63
2022/10/23 05:58:35;;;;;;;35.67;10.80;;;;;;;16.12;90.13;99547.63;5103238;28;20062;-62
2022/10/23 06:01:09;;;;;;;31.80;11.50;;;;;;;16.18;90.08;99557.53;5101301;28;20054;-63
2022/10/23 06:03:37;;;;;;;39.05;12.57;;;;;;;16.25;90.15;99524.00;5106016;28;20055;-65
2022/10/23 06:06:06;;;;;;;29.48;9.57;;;;;;;16.29;90.07;99547.50;5109443;28;20054;-63
2022/10/23 06:08:33;;;;;;;36.80;10.57;;;;;;;16.26;89.79;99550.19;5104095;28;20490;-63
2022/10/23 06:11:10;;;;;;;;;;;;;;;16.11;90.34;99551.63;5102903;28;20479;-63
2022/10/23 06:13:37;;;;;;;21.10;8.32;;;;;;;16.26;89.48;99561.44;5104619;28;19920;-63
2022/10/23 06:16:17;;;;;;;25.50;9.13;;;;;;;16.25;89.40;99543.72;5109896;28;20413;-63
2022/10/23 06:18:45;;;;;;;27.95;10.10;;;;;;;16.30;89.62;99549.13;5100689;28;20058;-63
2022/10/23 06:21:13;;;;;;;35.90;11.15;;;;;;;16.37;89.61;99578.75;5102688;28;20075;-65
2022/10/23 06:23:40;;;;;;;14.68;7.75;;;;;;;16.31;88.78;99584.63;5111303;28;20382;-63
2022/10/23 06:26:11;;;;;;;19.00;7.63;;;;;;;16.30;88.28;99568.84;5109800;28;20506;-63
2022/10/23 06:28:38;;;;;;;20.55;8.43;;;;;;;16.22;88.33;99569.75;5103827;28;20044;-63
2022/10/23 06:31:07;;;;;;;30.40;10.07;;;;;;;16.31;88.66;99569.72;5109220;28;20044;-64
2022/10/23 06:33:34;;;;;;;24.38;9.50;;;;;;;16.44;88.79;99557.31;5101071;28;20056;-63
2022/10/23 06:36:02;;;;;;;20.58;9.05;;;;;;;16.47;88.48;99578.34;5103911;28;20058;-63
2022/10/23 06:38:35;;;;;;;23.50;9.73;;;;;;;16.43;89.19;99580.22;5107262;28;20066;-63
2022/10/23 06:41:03;;;;;;;38.78;9.57;;;;;;;16.44;89.08;99576.22;5108742;28;20056;-63
2022/10/23 06:43:30;;;;;;;27.55;9.98;;;;;;;16.43;89.19;99574.56;5098696;28;20047;-64
2022/10/23 06:46:02;;;;;;;40.25;10.35;;;;;;;16.44;89.10;99576.22;5104986;28;20055;-63
2022/10/23 06:48:30;;;;;;;22.23;8.38;;;;;;;16.43;88.73;99574.56;5106165;28;20051;-63
2022/10/23 06:50:58;;;;;;;47.55;12.10;;;;;;;16.49;89.06;99601.38;5103888;28;20709;-63
2022/10/23 06:53:25;;;;;;;46.78;10.57;;;;;;;16.47;88.93;99606.53;5104438;28;20047;-63
2022/10/23 06:55:52;;;;;;;32.03;9.25;;;;;;;16.47;89.36;99595.25;5105273;28;20051;-63
2022/10/23 06:58:21;;;;;;;32.10;10.53;;;;;;;16.47;89.05;99603.72;5109581;28;20058;-63
2022/10/23 07:00:47;;;;;;;30.58;9.43;;;;;;;16.48;89.30;99600.56;5102938;28;20048;-63
2022/10/23 07:03:14;;;;;;;23.10;7.93;;;;;;;16.57;88.88;99608.94;5080598;28;20056;-63
2022/10/23 07:05:43;;;;;;;39.80;8.90;;;;;;;16.59;89.02;99610.25;5102129;28;20051;-64
2022/10/23 07:08:10;;;;;;;39.17;10.05;;;;;;;16.50;89.04;99598.22;5096669;28;20051;-63
2022/10/23 07:10:37;;;;;;;30.88;9.95;;;;;;;16.55;88.48;99616.94;5102932;28;20054;-63
2022/10/23 07:13:04;;;;;;;20.15;9.07;;;;;;;16.55;88.67;99616.94;5104166;28;20059;-63
2022/10/23 07:15:31;;;;;;;34.47;10.45;;;;;;;16.47;89.00;99613.00;5100260;28;20047;-63
2022/10/23 07:17:57;;;;;;;41.05;11.02;;;;;;;16.51;88.79;99632.84;5099284;28;20056;-62
2022/10/23 07:20:24;;;;;;;23.80;9.93;;;;;;;16.39;88.77;99635.59;5095392;28;20575;-64
2022/10/23 07:22:53;;;;;;;28.65;10.68;;;;;;;16.38;89.35;99629.16;5105766;28;20058;-64
2022/10/23 07:25:21;;;;;;;24.95;8.95;;;;;;;16.34;88.87;99639.44;5095718;28;20059;-64
2022/10/23 07:27:49;;;;;;;34.05;13.52;;;;;;;16.33;89.55;99627.34;5107372;28;20058;-65
2022/10/23 07:30:16;;;;;;;25.13;11.82;;;;;;;16.32;89.49;99641.78;5110135;28;20051;-64
2022/10/23 07:32:43;;;;;;;16.50;7.95;;;;;;;16.39;89.72;99615.88;5103476;28;20063;-63
2022/10/23 07:35:11;;;;;;;27.80;8.65;;;;;;;16.48;89.37;99631.56;5106420;28;20046;-65
2022/10/23 07:37:43;;;;;;;34.40;10.77;;;;;;;16.58;89.53;99648.06;5099295;28;20067;-64
2022/10/23 07:40:11;;;;;;;25.05;9.38;;;;;;;16.69;89.48;99662.59;5100395;28;20053;-64
2022/10/23 07:42:38;;;;;;;29.02;10.57;;;;;;;16.75;89.64;99663.22;5103429;28;20050;-64
2022/10/23 07:45:07;;;;;;;21.70;8.65;;;;;;;16.86;89.25;99658.00;5094593;28;20520;-63
2022/10/23 07:47:34;;;;;;;28.63;8.07;;;;;;;16.88;88.77;99681.03;5107582;28;20189;-65
2022/10/23 07:50:01;;;;;;;26.83;8.20;;;;;;;16.93;88.48;99655.47;5100844;28;20052;-64
2022/10/23 07:52:27;;;;;;;29.33;7.75;;;;;;;17.02;88.43;99661.81;5100408;28;20218;-63
2022/10/23 07:55:00;;;;;;;30.60;9.18;;;;;;;17.08;88.52;99668.09;5100854;28;20095;-64
2022/10/23 07:57:27;;;;;;;20.88;6.93;;;;;;;17.09;88.16;99703.59;5100614;27;20225;-67
2022/10/23 07:59:54;;;;;;;18.55;8.05;;;;;;;16.98;87.67;99680.63;5109027;28;20059;-64
2022/10/23 08:02:21;;;;;;;24.50;9.23;;;;;;;16.92;87.41;99688.47;5104748;28;20047;-64
2022/10/23 08:04:49;;;;;;;19.23;8.52;;;;;;;16.78;87.53;99683.09;5099199;28;20050;-65
2022/10/23 08:07:15;;;;;;;17.10;8.30;;;;;;;16.73;87.90;99697.38;5107629;28;20052;-65
2022/10/23 08:09:42;;;;;;;15.27;7.35;;;;;;;16.62;87.97;99701.78;5104099;28;20048;-64
2022/10/23 08:12:09;;;;;;;26.80;10.18;;;;;;;16.56;87.97;99697.50;5099936;28;20048;-63
2022/10/23 08:14:37;;;;;;;25.90;8.93;;;;;;;16.56;87.58;99715.22;5097835;28;20051;-64
2022/10/23 08:17:08;;;;;;;29.98;8.85;;;;;;;16.59;88.44;99697.63;5101234;28;20222;-64
2022/10/23 08:19:35;;;;;;;22.15;7.47;;;;;;;16.60;88.71;99675.91;5099046;28;20067;-65
2022/10/23 08:22:02;;;;;;;18.75;7.22;;;;;;;16.72;88.58;99714.63;5097745;28;20454;-65
2022/10/23 08:24:29;;;;;;;25.17;8.38;;;;;;;16.75;88.46;99726.09;5108992;28;20058;-66
2022/10/23 08:26:57;;;;;;;28.30;8.90;;;;;;;16.72;88.29;99723.09;5104671;28;20048;-65
2022/10/23 08:29:24;;;;;;;35.00;10.23;;;;;;;16.64;87.98;99724.78;5104225;28;20063;-65
2022/10/23 08:31:56;;;;;;;30.50;8.18;;;;;;;16.58;88.46;99724.19;5108357;28;20413;-66
2022/10/23 08:34:23;;;;;;;26.45;8.05;;;;;;;16.50;88.62;99746.75;5104583;28;20063;-66
2022/10/23 08:36:50;;;;;;;27.85;10.90;;;;;;;16.46;88.79;99742.97;5109157;28;20052;-65
2022/10/23 08:39:16;;;;;;;16.70;8.35;;;;;;;16.38;89.17;99738.22;5109516;28;20070;-65
2022/10/23 08:41:49;;;;;;;20.60;9.48;;;;;;;16.33;89.56;99756.13;5105754;28;20063;-65
2022/10/23 08:44:39;;;;;;;43.35;20.02;;;;;;;16.06;89.50;99754.56;5105526;28;20047;-65
2022/10/23 08:47:10;;;;;;;27.90;18.90;;;;;;;16.02;91.09;99768.50;5107108;28;20058;-64
2022/10/23 08:49:50;;;;;;;32.78;19.85;;;;;;;15.90;90.96;99761.91;5108245;28;20043;-65
2022/10/23 08:52:38;;;;;;;30.90;23.98;;;;;;;15.91;91.56;99757.97;5100404;28;20050;-64
2022/10/23 08:55:14;;;;;;;45.92;23.80;;;;;;;15.91;91.84;99772.84;5108978;28;20051;-65
2022/10/23 08:57:50;;;;;;;50.83;26.42;;;;;;;15.91;92.06;99774.84;5108634;28;20043;-65
2022/10/23 09:00:18;;;;;;;32.28;22.00;;;;;;;15.91;92.62;99744.69;5109280;28;20054;-66
2022/10/23 09:02:50;;;;;;;32.38;25.52;;;;;;;15.94;92.70;99772.19;5110208;28;20055;-67
2022/10/23 09:05:49;;;;;;;21.20;18.98;;;;;;;15.94;93.08;99777.00;5109351;28;20055;-66
2022/10/23 09:09:11;;;;;;;33.83;18.45;;;;;;;15.95;93.06;99773.00;5110033;28;20421;-65
2022/10/23 09:11:49;;;;;;;38.92;18.33;;;;;;;16.01;92.50;99780.13;5021067;28;20085;-66
2022/10/23 09:14:23;;;;;;;35.42;17.85;;;;;;;16.02;92.87;99776.97;5100278;28;20402;-65
2022/10/23 09:17:05;;;;;;;33.55;16.50;;;;;;;16.05;92.43;99772.66;5106492;27;20052;-66
2022/10/23 09:19:32;;;;;;;31.80;16.27;;;;;;;16.03;92.48;99789.91;5110829;28;20158;-65
2022/10/23 09:21:59;;;;;;;36.80;22.70;;;;;;;15.96;92.56;99825.34;5111821;28;20052;-65
2022/10/23 09:24:30;;;;;;;38.92;21.50;;;;;;;15.91;92.92;99817.91;5095030;28;20399;-65
2022/10/23 09:26:59;;;;;;;44.63;26.63;;;;;;;15.96;93.29;99826.16;5101117;28;20494;-65
2022/10/23 09:29:34;;;;;;;38.88;21.40;;;;;;;15.93;93.34;99826.00;5107937;28;20142;-65
2022/10/23 09:32:04;;;;;;;19.63;17.55;;;;;;;15.81;93.19;99824.72;5103673;28;20055;-66
2022/10/23 09:34:33;;;;;;;18.40;16.55;;;;;;;15.72;93.22;99823.06;5109338;28;20048;-65
2022/10/23 09:37:19;;;;;;;19.40;17.50;;;;;;;15.55;92.81;99840.75;5106822;28;20055;-65
2022/10/23 09:39:47;;;;;;;35.88;18.92;;;;;;;15.51;93.65;99832.16;5111034;28;20079;-67
2022/10/23 09:42:23;;;;;;;27.63;24.67;;;;;;;15.49;93.13;99816.78;5100749;28;20051;-66
2022/10/23 09:44:52;;;;;;;25.27;23.17;;;;;;;15.57;93.80;99818.75;5108815;28;20059;-65
2022/10/23 09:47:23;;;;;;;19.83;17.50;;;;;;;15.59;93.99;99822.91;5106371;28;20047;-66
2022/10/23 09:49:55;;;;;;;24.48;20.88;;;;;;;15.57;93.87;99818.75;5112436;28;20108;-66
2022/10/23 09:52:27;;;;;;;34.53;18.48;;;;;;;15.69;94.12;99830.22;5106282;28;20055;-66
2022/10/23 09:54:57;;;;;;;35.25;18.80;;;;;;;15.77;94.18;99835.00;5112741;28;20051;-66
2022/10/23 09:57:41;;;;;;;23.98;17.73;;;;;;;15.88;94.28;99841.91;5107256;28;20051;-65
2022/10/23 10:00:15;;;;;;;30.50;21.08;;;;;;;16.31;94.86;99843.81;5108180;28;20523;-65
2022/10/23 10:02:53;;;;;;;28.88;16.02;;;;;;;16.65;94.21;99841.19;5107669;28;20043;-66
2022/10/23 10:05:23;;;;;;;40.88;15.43;;;;;;;16.76;93.74;99850.97;5110251;28;20062;-65
2022/10/23 10:07:58;;;;;;;;;;;;;;;16.89;93.99;99851.88;5112192;27;20092;-66
2022/10/23 10:10:33;;;;;;;41.50;14.27;;;;;;;17.03;93.55;99842.03;5108777;28;19928;-66
2022/10/23 10:13:17;;;;;;;45.03;12.65;;;;;;;17.21;93.57;99848.38;5111471;28;20055;-65
2022/10/23 10:15:54;;;;;;;33.38;12.90;;;;;;;17.36;92.96;99869.50;5106279;28;20055;-65
2022/10/23 10:18:36;;;;;;;20.35;8.65;;;;;;;17.56;93.23;99856.56;5107574;28;20410;-65
2022/10/23 10:21:12;;;;;;;16.38;8.05;;;;;;;17.75;92.49;99842.81;5113417;28;20059;-65
2022/10/23 10:23:59;;;;;;;39.60;11.23;;;;;;;17.83;91.54;99860.03;5110534;28;20043;-65
2022/10/23 10:26:44;;;;;;;31.73;9.65;;;;;;;17.92;90.93;99860.78;5108461;28;20051;-65
2022/10/23 10:29:15;;;;;;;26.27;10.70;;;;;;;18.20;90.86;99849.69;5113125;28;20059;-65
2022/10/23 10:32:00;;;;;;;31.02;10.82;;;;;;;18.24;89.66;99840.16;5111705;28;20056;-65
2022/10/23 10:34:45;;;;;;;37.33;11.57;;;;;;;18.06;89.50;99844.38;5113655;28;20048;-65
2022/10/23 10:37:28;;;;;;;29.80;10.65;;;;;;;18.09;89.80;99866.28;5112005;28;20054;-66
2022/10/23 10:40:01;;;;;;;27.92;10.32;;;;;;;18.13;89.89;99872.88;5104755;28;20380;-65
2022/10/23 10:42:48;;;;;;;30.13;9.40;;;;;;;18.11;89.03;99852.59;5110257;28;20048;-66
2022/10/23 10:45:29;;;;;;;30.73;10.95;;;;;;;18.09;88.90;99856.97;5107746;28;20058;-65
2022/10/23 10:48:14;;;;;;;22.73;10.43;;;;;;;17.95;87.82;99865.75;5103228;28;20059;-65
2022/10/23 10:51:04;;;;;;;37.75;10.60;;;;;;;17.86;88.81;99874.28;5104168;28;20401;-65
2022/10/23 10:53:46;;;;;;;54.28;18.15;;;;;;;18.04;89.79;99880.59;5123617;27;20043;-65
2022/10/23 10:56:17;;;;;;;29.80;12.27;;;;;;;18.19;89.79;99881.97;5113035;28;20413;-66
2022/10/23 10:58:58;;;;;;;42.88;11.95;;;;;;;18.58;90.90;99899.50;5113388;28;20055;-65
2022/10/23 11:01:55;;;;;;;37.25;10.73;;;;;;;18.87;91.04;99895.66;5112312;28;20051;-64
2022/10/23 11:04:39;;;;;;;36.33;11.13;;;;;;;19.05;91.14;99897.09;5111899;28;20141;-65
2022/10/23 11:07:12;;;;;;;35.67;12.43;;;;;;;19.76;93.00;99903.41;5111081;27;20121;-66
2022/10/23 11:09:40;;;;;;;34.42;9.07;;;;;;;20.13;90.88;99902.09;5112426;28;20494;-66
2022/10/23 11:12:16;;;;;;;27.35;9.10;;;;;;;19.75;89.56;99901.75;5113374;28;20083;-66
2022/10/23 11:14:44;;;;;;;17.58;9.50;;;;;;;20.16;89.52;99900.53;5100666;27;20597;-67
2022/10/23 11:17:24;;;;;;;31.83;9.20;;;;;;;19.93;87.10;99891.81;5113825;28;20048;-66
2022/10/23 11:20:02;;;;;;;25.75;8.30;;;;;;;19.97;87.03;99906.06;5112911;28;20052;-66
2022/10/23 11:22:45;;;;;;;22.27;8.57;;;;;;;20.03;86.65;99879.94;5111389;28;20058;-66
2022/10/23 11:25:33;;;;;;;24.38;10.20;;;;;;;20.43;87.07;99893.19;5111715;28;20382;-65
2022/10/23 11:28:18;;;;;;;28.50;11.82;;;;;;;20.54;86.86;99902.84;5102350;28;20052;-66
2022/10/23 11:31:10;;;;;;;21.85;8.38;;;;;;;21.06;85.03;99910.31;5110486;28;20055;-66
2022/10/23 11:33:46;;;;;;;19.48;8.82;;;;;;;21.55;87.10;99911.09;5110025;28;20474;-65
2022/10/23 11:36:39;;;;;;;19.00;8.65;;;;;;;22.02;82.54;99910.94;5103115;28;20040;-66
2022/10/23 11:39:20;;;;;;;20.38;7.82;;;;;;;21.83;80.58;99891.03;5090276;28;20461;-66
2022/10/23 11:41:54;;;;;;;18.00;8.52;;;;;;;22.52;82.26;99899.75;5102175;28;20052;-66
2022/10/23 11:44:35;;;;;;;15.93;7.03;;;;;;;23.13;82.41;99901.69;5099068;28;20044;-66
2022/10/23 11:47:30;;;;;;;23.33;8.93;;;;;;;22.96;79.81;99914.44;5102188;28;20047;-66